Time;durP1;ratioP1;P1;durP2;ratioP2;P2;SDS_P1;SDS_P2;PMS_P1;PMS_P2;Temp;Humidity;BMP_temperature;BMP_pressure;BME280_temperature;BME280_humidity;BME280_pressure;Samples;Min_cycle;Max_cycle;Signal;HPM_P1;HPM_P2
2023/12/10 00:00:23;;;;;;;18.97;10.70;;;;;21.70;98802.00;;;;2070434;28;20232;-69
2023/12/10 00:01:24;;;;;;;15.80;9.13;;;;;21.70;98788.00;;;;2079646;28;20214;-69
2023/12/10 00:02:24;;;;;;;17.67;9.73;;;;;21.70;98807.00;;;;2080307;28;20248;-69
2023/12/10 00:03:24;;;;;;;15.80;8.77;;;;;21.70;98804.00;;;;2080155;28;20217;-70
2023/12/10 00:04:25;;;;;;;19.00;9.70;;;;;21.70;98801.00;;;;2079160;28;20221;-70
2023/12/10 00:05:25;;;;;;;17.53;9.93;;;;;21.70;98805.00;;;;2066892;28;20704;-70
2023/12/10 00:06:25;;;;;;;20.80;11.00;;;;;21.70;98807.00;;;;2076297;28;20229;-70
2023/12/10 00:07:26;;;;;;;18.97;8.67;;;;;21.70;98805.00;;;;2075243;28;20225;-70
2023/12/10 00:08:26;;;;;;;18.13;9.97;;;;;21.70;98814.00;;;;2077831;28;20499;-70
2023/12/10 00:09:26;;;;;;;18.60;9.90;;;;;21.70;98813.00;;;;2080301;28;20229;-70
2023/12/10 00:10:27;;;;;;;16.90;8.73;;;;;21.70;98814.00;;;;2073530;28;20253;-70
2023/12/10 00:11:27;;;;;;;20.13;9.80;;;;;21.70;98819.00;;;;2080039;28;20221;-70
2023/12/10 00:12:27;;;;;;;16.53;8.73;;;;;21.70;98807.00;;;;2075669;28;20259;-70
2023/12/10 00:13:28;;;;;;;13.83;8.40;;;;;21.70;98808.00;;;;2080063;28;20217;-70
2023/12/10 00:14:28;;;;;;;15.60;8.00;;;;;21.70;98810.00;;;;2078866;28;20221;-70
2023/12/10 00:15:28;;;;;;;14.00;8.40;;;;;21.70;98812.00;;;;2070452;28;20233;-70
2023/12/10 00:16:29;;;;;;;13.93;7.33;;;;;21.70;98809.00;;;;2079701;28;20221;-70
2023/12/10 00:17:29;;;;;;;17.23;8.67;;;;;21.70;98818.00;;;;2073659;28;20234;-70
2023/12/10 00:18:30;;;;;;;14.00;8.37;;;;;21.70;98812.00;;;;2076972;28;20218;-70
2023/12/10 00:19:31;;;;;;;16.67;8.60;;;;;21.70;98818.00;;;;2079600;28;20213;-70
2023/12/10 00:20:32;;;;;;;17.83;8.60;;;;;21.70;98814.00;;;;2070382;28;20230;-70
2023/12/10 00:21:32;;;;;;;15.10;8.10;;;;;21.60;98815.00;;;;2079393;28;20209;-70
2023/12/10 00:22:32;;;;;;;14.23;7.90;;;;;21.60;98840.00;;;;2077696;28;20279;-70
2023/12/10 00:23:32;;;;;;;15.33;7.47;;;;;21.60;98817.00;;;;2079251;28;20221;-70
2023/12/10 00:24:33;;;;;;;15.93;7.67;;;;;21.60;98815.00;;;;2079624;28;20232;-70
2023/12/10 00:25:33;;;;;;;17.40;7.60;;;;;21.60;98817.00;;;;2069749;28;20217;-70
2023/12/10 00:26:34;;;;;;;12.07;6.80;;;;;21.60;98816.00;;;;2077409;28;20236;-70
2023/12/10 00:27:34;;;;;;;14.10;7.93;;;;;21.60;98817.00;;;;2079927;28;20228;-70
2023/12/10 00:28:34;;;;;;;11.17;6.63;;;;;21.60;98828.00;;;;2078983;28;20214;-70
2023/12/10 00:29:35;;;;;;;17.03;7.70;;;;;21.60;98822.00;;;;2079914;28;20209;-70
2023/12/10 00:30:36;;;;;;;14.77;7.10;;;;;21.60;98818.00;;;;2072047;28;20220;-70
2023/12/10 00:31:37;;;;;;;12.80;6.65;;;;;21.60;98830.00;;;;2079951;28;20220;-70
2023/12/10 00:32:37;;;;;;;18.63;8.10;;;;;21.60;98821.00;;;;2074975;28;20263;-70
2023/12/10 00:33:38;;;;;;;11.30;6.90;;;;;21.60;98830.00;;;;2079264;28;20701;-70
2023/12/10 00:34:38;;;;;;;12.80;7.17;;;;;21.60;98826.00;;;;2070452;28;20698;-70
2023/12/10 00:35:39;;;;;;;13.20;6.90;;;;;21.60;98832.00;;;;2089166;28;20226;-70
2023/12/10 00:36:39;;;;;;;13.07;6.73;;;;;21.50;98830.00;;;;2088961;28;20263;-70
2023/12/10 00:37:39;;;;;;;15.13;6.20;;;;;21.50;98830.00;;;;2079744;28;20233;-70
2023/12/10 00:38:40;;;;;;;11.20;5.90;;;;;21.50;98835.00;;;;2079505;28;20216;-70
2023/12/10 00:39:40;;;;;;;14.67;6.70;;;;;21.50;98832.00;;;;2067358;28;20253;-70
2023/12/10 00:40:40;;;;;;;13.40;6.80;;;;;21.50;98839.00;;;;2077958;28;20249;-70
2023/12/10 00:41:40;;;;;;;14.07;7.13;;;;;21.60;98841.00;;;;2078404;28;20586;-70
2023/12/10 00:42:43;;;;;;;12.10;6.00;;;;;21.60;98836.00;;;;2077092;28;20638;-70
2023/12/10 00:43:43;;;;;;;11.10;6.00;;;;;21.50;98838.00;;;;2078094;28;20241;-70
2023/12/10 00:44:43;;;;;;;12.53;6.00;;;;;21.50;98840.00;;;;2070040;28;20762;-70
2023/12/10 00:45:44;;;;;;;11.30;5.47;;;;;21.60;98847.00;;;;2079703;28;20578;-70
2023/12/10 00:46:44;;;;;;;10.63;5.50;;;;;21.50;98839.00;;;;2079920;28;20224;-70
2023/12/10 00:47:45;;;;;;;12.50;5.97;;;;;21.50;98836.00;;;;2078251;28;20228;-70
2023/12/10 00:48:45;;;;;;;12.17;6.10;;;;;21.50;98837.00;;;;2079726;28;20237;-70
2023/12/10 00:49:45;;;;;;;11.63;5.83;;;;;21.50;98826.00;;;;2069777;28;20227;-70
2023/12/10 00:50:46;;;;;;;12.27;5.70;;;;;21.50;98833.00;;;;2079908;28;20225;-70
2023/12/10 00:51:46;;;;;;;12.23;5.80;;;;;21.50;98844.00;;;;2079751;28;20581;-70
2023/12/10 00:52:46;;;;;;;12.10;5.50;;;;;21.50;98845.00;;;;2078020;28;20217;-70
2023/12/10 00:53:47;;;;;;;11.87;5.47;;;;;21.50;98840.00;;;;2079810;28;20213;-70
2023/12/10 00:54:47;;;;;;;13.40;5.23;;;;;21.50;98838.00;;;;2069612;28;20716;-70
2023/12/10 00:55:48;;;;;;;10.33;5.40;;;;;21.50;98850.00;;;;2079546;28;20221;-70
2023/12/10 00:56:48;;;;;;;14.67;6.07;;;;;21.50;98842.00;;;;2079721;28;20241;-70
2023/12/10 00:57:49;;;;;;;12.23;5.70;;;;;21.50;98858.00;;;;2079505;28;20300;-70
2023/12/10 00:58:49;;;;;;;10.43;5.03;;;;;21.50;98856.00;;;;2079764;28;20221;-70
2023/12/10 00:59:49;;;;;;;11.47;5.60;;;;;21.40;98849.00;;;;2072928;28;20260;-70
2023/12/10 01:00:50;;;;;;;12.30;6.17;;;;;21.50;98863.00;;;;2080501;28;20218;-70
2023/12/10 01:01:50;;;;;;;12.80;5.57;;;;;21.40;98858.00;;;;2077418;28;20260;-70
2023/12/10 01:02:50;;;;;;;10.70;5.87;;;;;21.40;98852.00;;;;2079451;28;20235;-70
2023/12/10 01:03:51;;;;;;;10.20;4.77;;;;;21.40;98857.00;;;;2079321;28;20247;-70
2023/12/10 01:04:51;;;;;;;12.00;5.63;;;;;21.40;98845.00;;;;2077411;28;20559;-68
2023/12/10 01:05:52;;;;;;;12.07;5.10;;;;;21.50;98849.00;;;;2080359;28;20721;-67
2023/12/10 01:06:52;;;;;;;12.03;4.70;;;;;21.40;98861.00;;;;2077613;28;20452;-68
2023/12/10 01:07:52;;;;;;;10.70;5.27;;;;;21.40;98850.00;;;;2077344;28;20237;-67
2023/12/10 01:08:53;;;;;;;11.83;5.10;;;;;21.40;98859.00;;;;2078264;28;20230;-68
2023/12/10 01:09:53;;;;;;;13.03;5.70;;;;;21.40;98841.00;;;;2070430;28;20224;-68
2023/12/10 01:10:53;;;;;;;12.43;5.23;;;;;21.40;98859.00;;;;2078134;28;20220;-68
2023/12/10 01:11:54;;;;;;;12.10;4.83;;;;;21.40;98852.00;;;;2084108;28;20390;-68
2023/12/10 01:12:54;;;;;;;13.60;5.03;;;;;21.40;98853.00;;;;2080093;28;20592;-68
2023/12/10 01:13:54;;;;;;;11.90;4.77;;;;;21.40;98856.00;;;;2079158;28;20598;-68
2023/12/10 01:14:55;;;;;;;12.23;5.00;;;;;21.40;98860.00;;;;2070402;28;20229;-67
2023/12/10 01:15:55;;;;;;;13.23;5.27;;;;;21.40;98863.00;;;;2079325;28;20236;-68
2023/12/10 01:16:55;;;;;;;11.43;4.87;;;;;21.40;98861.00;;;;2079419;28;20304;-68
2023/12/10 01:18:01;;;;;;;11.20;4.37;;;;;21.40;98867.00;;;;2077504;28;20268;-69
2023/12/10 01:19:02;;;;;;;11.98;4.75;;;;;21.40;98866.00;;;;2067562;28;20222;-69
2023/12/10 01:20:05;;;;;;;9.57;4.23;;;;;21.40;98860.00;;;;2070822;28;20302;-69
2023/12/10 01:21:09;;;;;;;11.98;5.60;;;;;21.40;98864.00;;;;2086512;28;20231;-68
2023/12/10 01:22:09;;;;;;;11.45;5.00;;;;;21.40;98868.00;;;;2079565;28;20613;-68
2023/12/10 01:23:10;;;;;;;9.40;4.13;;;;;21.40;98878.00;;;;2079208;28;20206;-68
2023/12/10 01:24:15;;;;;;;12.53;4.77;;;;;21.40;98870.00;;;;2079383;28;20206;-69
2023/12/10 01:25:15;;;;;;;8.27;3.92;;;;;21.40;98869.00;;;;2069839;28;20567;-68
2023/12/10 01:26:16;;;;;;;10.60;4.20;;;;;21.40;98875.00;;;;2079901;28;20291;-68
2023/12/10 01:27:16;;;;;;;9.37;4.23;;;;;21.40;98884.00;;;;2079705;28;20267;-68
2023/12/10 01:28:16;;;;;;;9.53;4.83;;;;;21.40;98880.00;;;;2079427;28;20217;-69
2023/12/10 01:29:17;;;;;;;8.97;4.03;;;;;21.40;98878.00;;;;2079708;28;20249;-69
2023/12/10 01:30:18;;;;;;;12.90;5.30;;;;;21.30;98886.00;;;;2069671;28;20230;-68
2023/12/10 01:31:18;;;;;;;7.03;3.70;;;;;21.30;98880.00;;;;2079902;28;20309;-69
2023/12/10 01:32:20;;;;;;;12.33;4.30;;;;;21.40;98887.00;;;;2079173;28;20311;-69
2023/12/10 01:33:20;;;;;;;9.45;4.40;;;;;21.40;98871.00;;;;2079901;28;20220;-68
2023/12/10 01:34:21;;;;;;;9.37;4.53;;;;;21.40;98885.00;;;;2078314;28;20238;-68
2023/12/10 01:35:21;;;;;;;11.10;4.90;;;;;21.30;98901.00;;;;2070520;28;20225;-69
2023/12/10 01:36:22;;;;;;;9.13;4.03;;;;;21.30;98898.00;;;;2080717;28;20699;-68
2023/12/10 01:37:23;;;;;;;9.63;3.90;;;;;21.30;98896.00;;;;2080399;28;20707;-68
2023/12/10 01:38:23;;;;;;;12.17;4.57;;;;;21.30;98899.00;;;;2081090;28;20233;-68
2023/12/10 01:39:23;;;;;;;10.50;4.20;;;;;21.30;98895.00;;;;2078558;28;20237;-69
2023/12/10 01:40:24;;;;;;;10.07;4.20;;;;;21.30;98894.00;;;;2071790;28;20218;-69
2023/12/10 01:41:25;;;;;;;11.50;4.00;;;;;21.30;98901.00;;;;2081402;28;20237;-68
2023/12/10 01:42:26;;;;;;;9.43;3.40;;;;;21.30;98896.00;;;;2077936;28;20360;-68
2023/12/10 01:43:26;;;;;;;11.50;4.10;;;;;21.30;98902.00;;;;2081395;28;20275;-69
2023/12/10 01:44:26;;;;;;;9.97;4.47;;;;;21.30;98908.00;;;;2078711;28;20252;-68
2023/12/10 01:45:27;;;;;;;11.63;4.60;;;;;21.30;98905.00;;;;2071808;28;20217;-69
2023/12/10 01:46:27;;;;;;;9.53;4.07;;;;;21.30;98916.00;;;;2080806;28;20267;-69
2023/12/10 01:47:28;;;;;;;10.50;4.23;;;;;21.30;98901.00;;;;2083997;28;20240;-68
2023/12/10 01:48:28;;;;;;;13.97;4.60;;;;;21.30;98905.00;;;;2077737;28;20225;-69
2023/12/10 01:49:29;;;;;;;12.47;4.10;;;;;21.30;98909.00;;;;2080352;28;20245;-69
2023/12/10 01:50:29;;;;;;;11.10;3.80;;;;;21.30;98901.00;;;;2062805;28;20245;-69
2023/12/10 01:51:29;;;;;;;9.77;3.47;;;;;21.30;98902.00;;;;2078795;28;20244;-69
2023/12/10 01:52:30;;;;;;;10.43;4.43;;;;;21.30;98905.00;;;;2080426;28;20223;-69
2023/12/10 01:53:31;;;;;;;9.82;4.05;;;;;21.30;98904.00;;;;2079098;28;20202;-69
2023/12/10 01:54:31;;;;;;;10.60;4.00;;;;;21.30;98911.00;;;;2080892;28;20582;-68
2023/12/10 01:55:31;;;;;;;10.87;4.30;;;;;21.30;98927.00;;;;2070584;28;20693;-68
2023/12/10 01:56:32;;;;;;;9.37;3.73;;;;;21.30;98876.00;;;;2080101;28;20707;-69
2023/12/10 01:57:32;;;;;;;10.93;3.67;;;;;21.30;98925.00;;;;2080387;28;20210;-69
2023/12/10 01:58:33;;;;;;;11.73;3.50;;;;;21.20;98908.00;;;;2073461;28;20905;-68
2023/12/10 01:59:34;;;;;;;12.43;5.07;;;;;21.20;98893.00;;;;2091944;28;20231;-69
2023/12/10 02:00:35;;;;;;;11.27;3.65;;;;;21.30;98911.00;;;;2073787;28;20221;-69
2023/12/10 02:01:36;;;;;;;13.00;4.53;;;;;21.30;98922.00;;;;2080433;28;20249;-69
2023/12/10 02:02:36;;;;;;;9.30;4.07;;;;;21.30;98885.00;;;;2080313;28;20221;-69
2023/12/10 02:03:37;;;;;;;9.50;3.63;;;;;21.30;98913.00;;;;2062198;28;20225;-69
2023/12/10 02:04:37;;;;;;;10.13;3.80;;;;;21.20;98915.00;;;;2062024;28;20226;-69
2023/12/10 02:05:38;;;;;;;9.60;4.00;;;;;21.30;98909.00;;;;2079149;28;20221;-69
2023/12/10 02:06:38;;;;;;;7.47;3.50;;;;;21.20;98920.00;;;;2079714;28;20217;-69
2023/12/10 02:07:38;;;;;;;9.83;3.60;;;;;21.20;98916.00;;;;2080189;28;20225;-69
2023/12/10 02:08:39;;;;;;;10.33;3.90;;;;;21.20;98919.00;;;;2078711;28;20213;-69
2023/12/10 02:09:40;;;;;;;10.37;4.50;;;;;21.20;98922.00;;;;2071535;28;20221;-69
2023/12/10 02:10:40;;;;;;;11.80;4.47;;;;;21.20;98924.00;;;;2088187;28;20995;-69
2023/12/10 02:11:41;;;;;;;9.83;3.63;;;;;21.20;98924.00;;;;2086994;28;20220;-68
2023/12/10 02:12:41;;;;;;;8.03;3.40;;;;;21.20;98912.00;;;;2078257;28;20220;-68
2023/12/10 02:13:41;;;;;;;8.33;3.40;;;;;21.20;98936.00;;;;2079717;28;20218;-68
2023/12/10 02:14:42;;;;;;;7.60;3.80;;;;;21.20;98933.00;;;;2062473;28;20868;-69
2023/12/10 02:15:43;;;;;;;10.53;3.23;;;;;21.20;98917.00;;;;2077834;28;20288;-69
2023/12/10 02:16:43;;;;;;;7.15;3.53;;;;;21.20;98931.00;;;;2080265;28;20213;-68
2023/12/10 02:17:48;;;;;;;9.10;3.27;;;;;21.20;98927.00;;;;2080967;28;20622;-69
2023/12/10 02:18:48;;;;;;;8.90;3.50;;;;;21.20;98923.00;;;;2076483;28;20264;-69
2023/12/10 02:19:48;;;;;;;10.50;3.67;;;;;21.20;98927.00;;;;2071587;28;20209;-69
2023/12/10 02:20:49;;;;;;;11.90;3.90;;;;;21.20;98924.00;;;;2079337;28;20213;-69
2023/12/10 02:21:50;;;;;;;9.70;3.80;;;;;21.20;98932.00;;;;2080361;28;20217;-69
2023/12/10 02:23:22;;;;;;;11.00;4.17;;;;;21.20;98931.00;;;;2070752;28;20344;-69
2023/12/10 02:24:26;;;;;;;10.20;3.42;;;;;21.20;98932.00;;;;2053022;28;20874;-69
2023/12/10 02:25:33;;;;;;;9.23;3.50;;;;;21.20;98923.00;;;;2061366;28;20225;-69
2023/12/10 02:26:34;;;;;;;11.35;3.38;;;;;21.20;98945.00;;;;2082771;28;20690;-69
2023/12/10 02:27:34;;;;;;;17.10;5.13;;;;;21.10;98950.00;;;;2080783;28;20213;-68
2023/12/10 02:28:34;;;;;;;11.40;3.20;;;;;21.10;98931.00;;;;2080309;28;20225;-68
2023/12/10 02:29:35;;;;;;;7.90;2.73;;;;;21.20;98936.00;;;;2079781;28;20213;-69
2023/12/10 02:30:35;;;;;;;10.87;3.37;;;;;21.20;98940.00;;;;2073960;28;20681;-69
2023/12/10 02:31:36;;;;;;;10.20;3.53;;;;;21.20;98945.00;;;;2083779;28;20705;-69
2023/12/10 02:32:36;;;;;;;13.27;3.53;;;;;21.20;98943.00;;;;2080227;28;20221;-69
2023/12/10 02:33:36;;;;;;;8.57;3.17;;;;;21.10;98938.00;;;;2080931;28;20232;-69
2023/12/10 02:34:37;;;;;;;7.40;2.73;;;;;21.10;98942.00;;;;2070257;28;20668;-74
2023/12/10 02:35:37;;;;;;;10.17;3.60;;;;;21.10;98944.00;;;;2076770;28;20382;-69
2023/12/10 02:36:37;;;;;;;9.50;2.90;;;;;21.10;98947.00;;;;2080655;28;20309;-68
2023/12/10 02:37:38;;;;;;;9.20;3.43;;;;;21.10;98944.00;;;;2080386;28;20278;-69
2023/12/10 02:38:38;;;;;;;11.13;3.17;;;;;21.10;98943.00;;;;2080633;28;20222;-69
2023/12/10 02:39:38;;;;;;;9.93;3.00;;;;;21.10;98945.00;;;;2070359;28;20214;-69
2023/12/10 02:40:39;;;;;;;9.17;3.10;;;;;21.10;98949.00;;;;2079073;28;20210;-69
2023/12/10 02:41:39;;;;;;;9.77;3.30;;;;;21.10;98952.00;;;;2081061;28;20244;-70
2023/12/10 02:42:39;;;;;;;7.80;2.77;;;;;21.10;98953.00;;;;2080449;28;20804;-69
2023/12/10 02:43:40;;;;;;;8.80;2.90;;;;;21.10;98954.00;;;;2080953;28;20701;-69
2023/12/10 02:44:40;;;;;;;7.97;3.00;;;;;21.10;98949.00;;;;2070902;28;20295;-69
2023/12/10 02:45:40;;;;;;;8.93;2.60;;;;;21.10;98957.00;;;;2080844;28;20225;-69
2023/12/10 02:46:44;;;;;;;6.10;2.87;;;;;21.10;98961.00;;;;2080299;28;20256;-69
2023/12/10 02:47:44;;;;;;;7.80;2.92;;;;;21.10;98965.00;;;;2071437;28;20578;-69
2023/12/10 02:48:45;;;;;;;8.37;2.83;;;;;21.10;98951.00;;;;2063685;28;20218;-69
2023/12/10 02:49:45;;;;;;;12.20;3.53;;;;;21.10;98941.00;;;;2069774;28;20209;-69
2023/12/10 02:50:45;;;;;;;6.20;2.57;;;;;21.10;98964.00;;;;2080943;28;20210;-69
2023/12/10 02:51:46;;;;;;;7.70;2.70;;;;;21.10;98942.00;;;;2077107;28;20251;-69
2023/12/10 02:52:46;;;;;;;6.87;2.47;;;;;21.10;98945.00;;;;2078002;28;20214;-69
2023/12/10 02:53:46;;;;;;;8.70;3.23;;;;;21.10;98959.00;;;;2080787;28;20229;-68
2023/12/10 02:54:47;;;;;;;6.73;2.90;;;;;21.10;98947.00;;;;2070934;28;20268;-69
2023/12/10 02:55:47;;;;;;;7.87;2.73;;;;;21.10;98949.00;;;;2078769;28;20258;-69
2023/12/10 02:56:47;;;;;;;7.07;2.50;;;;;21.10;98953.00;;;;2080805;28;20233;-69
2023/12/10 02:57:48;;;;;;;7.50;2.97;;;;;21.10;98951.00;;;;2082866;28;20268;-69
2023/12/10 02:58:48;;;;;;;8.53;3.43;;;;;21.00;98941.00;;;;2079752;28;20221;-69
2023/12/10 02:59:48;;;;;;;8.63;3.10;;;;;21.00;98950.00;;;;2071138;28;20221;-69
2023/12/10 03:00:48;;;;;;;8.77;2.80;;;;;21.10;98951.00;;;;2080736;28;20340;-69
2023/12/10 03:01:49;;;;;;;8.23;2.90;;;;;21.00;98948.00;;;;2080203;28;20206;-69
2023/12/10 03:02:49;;;;;;;10.53;3.00;;;;;21.10;98951.00;;;;2080739;28;20283;-69
2023/12/10 03:03:49;;;;;;;7.67;2.70;;;;;21.10;98955.00;;;;2079844;28;20214;-68
2023/12/10 03:04:50;;;;;;;8.17;2.80;;;;;21.10;98967.00;;;;2069785;28;20252;-69
2023/12/10 03:05:50;;;;;;;10.43;3.27;;;;;21.10;98955.00;;;;2079730;28;20218;-68
2023/12/10 03:06:50;;;;;;;6.20;2.13;;;;;21.00;98961.00;;;;2080647;28;20221;-69
2023/12/10 03:07:51;;;;;;;6.37;2.87;;;;;21.00;98959.00;;;;2079749;28;20217;-69
2023/12/10 03:08:51;;;;;;;7.13;2.77;;;;;21.00;98957.00;;;;2080296;28;20222;-69
2023/12/10 03:09:51;;;;;;;8.47;2.73;;;;;21.00;98960.00;;;;2070293;28;20214;-69
2023/12/10 03:10:52;;;;;;;8.80;3.13;;;;;21.00;98958.00;;;;2074814;28;20328;-69
2023/12/10 03:11:52;;;;;;;7.30;2.63;;;;;21.00;98982.00;;;;2078188;28;20213;-69
2023/12/10 03:12:53;;;;;;;9.30;2.60;;;;;21.00;98968.00;;;;2080772;28;20723;-69
2023/12/10 03:13:53;;;;;;;7.53;3.00;;;;;21.00;98971.00;;;;2080346;28;20214;-68
2023/12/10 03:14:53;;;;;;;9.23;3.00;;;;;21.00;98972.00;;;;2070530;28;20241;-68
2023/12/10 03:15:54;;;;;;;5.30;2.30;;;;;21.00;98977.00;;;;2078149;28;20220;-69
2023/12/10 03:16:54;;;;;;;9.20;2.57;;;;;21.00;98985.00;;;;2080060;28;20245;-69
2023/12/10 03:17:57;;;;;;;9.50;2.60;;;;;21.00;98968.00;;;;2080603;28;20590;-68
2023/12/10 03:18:57;;;;;;;8.15;2.83;;;;;21.00;98981.00;;;;2078229;28;20624;-68
2023/12/10 03:19:57;;;;;;;10.30;4.00;;;;;21.00;98994.00;;;;2070147;28;20265;-69
2023/12/10 03:20:58;;;;;;;7.13;2.83;;;;;21.00;98973.00;;;;2077524;28;20236;-69
2023/12/10 03:21:58;;;;;;;6.60;2.60;;;;;21.00;98971.00;;;;2079252;28;20221;-69
2023/12/10 03:22:59;;;;;;;6.07;2.30;;;;;21.00;98986.00;;;;2080183;28;20794;-68
2023/12/10 03:24:00;;;;;;;9.98;2.72;;;;;21.00;98987.00;;;;2077360;28;20408;-69
2023/12/10 03:25:00;;;;;;;8.57;2.70;;;;;21.00;98988.00;;;;2071794;28;20216;-68
2023/12/10 03:26:00;;;;;;;7.00;3.00;;;;;21.00;98993.00;;;;2085545;28;20228;-69
2023/12/10 03:27:01;;;;;;;8.47;2.70;;;;;21.00;99004.00;;;;2076096;28;20281;-69
2023/12/10 03:28:01;;;;;;;5.80;2.03;;;;;21.00;98998.00;;;;2078868;28;22421;-69
2023/12/10 03:29:01;;;;;;;8.53;2.20;;;;;21.00;98980.00;;;;2079992;28;20209;-69
2023/12/10 03:30:02;;;;;;;7.70;2.70;;;;;21.00;98991.00;;;;2070818;28;20335;-69
2023/12/10 03:31:02;;;;;;;9.17;3.07;;;;;21.00;98989.00;;;;2079959;28;20298;-69
2023/12/10 03:32:03;;;;;;;7.50;2.80;;;;;21.00;99002.00;;;;2080409;28;20222;-69
2023/12/10 03:33:03;;;;;;;6.97;2.17;;;;;21.00;98997.00;;;;2080391;28;20217;-69
2023/12/10 03:34:03;;;;;;;5.67;2.17;;;;;21.00;98997.00;;;;2072411;28;20229;-68
2023/12/10 03:35:04;;;;;;;5.37;2.50;;;;;21.00;98994.00;;;;2069054;28;20237;-69
2023/12/10 03:36:04;;;;;;;5.30;2.13;;;;;21.00;99002.00;;;;2080011;28;20217;-68
2023/12/10 03:37:05;;;;;;;7.93;2.20;;;;;21.00;98997.00;;;;2077968;28;20283;-68
2023/12/10 03:38:05;;;;;;;9.13;2.57;;;;;21.00;99019.00;;;;2079901;28;20241;-68
2023/12/10 03:39:05;;;;;;;8.70;2.83;;;;;21.00;99007.00;;;;2079193;28;20205;-69
2023/12/10 03:40:06;;;;;;;6.87;2.50;;;;;21.00;98994.00;;;;2070805;28;20233;-69
2023/12/10 03:41:06;;;;;;;9.20;2.70;;;;;21.00;99016.00;;;;2079751;28;20559;-68
2023/12/10 03:42:07;;;;;;;7.87;3.10;;;;;21.00;98998.00;;;;2079348;28;20947;-69
2023/12/10 03:43:07;;;;;;;7.63;2.30;;;;;21.00;99005.00;;;;2076681;28;20267;-69
2023/12/10 03:44:07;;;;;;;9.07;2.77;;;;;20.90;99022.00;;;;2080259;28;20214;-68
2023/12/10 03:45:08;;;;;;;9.50;2.50;;;;;20.90;99013.00;;;;2070320;28;20229;-69
2023/12/10 03:46:08;;;;;;;9.93;2.97;;;;;20.90;99012.00;;;;2080388;28;20473;-68
2023/12/10 03:47:08;;;;;;;6.83;2.30;;;;;20.90;99013.00;;;;2078234;28;20212;-69
2023/12/10 03:48:09;;;;;;;7.23;2.20;;;;;21.00;99006.00;;;;2079516;28;20606;-69
2023/12/10 03:49:09;;;;;;;7.77;2.40;;;;;20.90;99014.00;;;;2080140;28;20567;-69
2023/12/10 03:50:10;;;;;;;9.20;2.30;;;;;20.90;99015.00;;;;2073944;28;20750;-69
2023/12/10 03:51:10;;;;;;;6.97;2.53;;;;;20.90;99025.00;;;;2078070;28;20266;-69
2023/12/10 03:52:10;;;;;;;8.47;2.20;;;;;20.90;99015.00;;;;2079686;28;20217;-69
2023/12/10 03:53:11;;;;;;;7.03;2.00;;;;;20.90;99023.00;;;;2080192;28;20298;-69
2023/12/10 03:54:11;;;;;;;7.13;2.40;;;;;20.90;98993.00;;;;2079132;28;20221;-68
2023/12/10 03:55:11;;;;;;;4.83;1.73;;;;;20.90;99029.00;;;;2070526;28;20715;-68
2023/12/10 03:56:12;;;;;;;6.30;2.40;;;;;20.90;99025.00;;;;2095642;28;20703;-69
2023/12/10 03:57:12;;;;;;;6.80;2.43;;;;;20.90;99037.00;;;;2078636;28;20217;-69
2023/12/10 03:58:12;;;;;;;6.03;2.10;;;;;20.90;99030.00;;;;2079279;28;20237;-68
2023/12/10 03:59:13;;;;;;;6.47;2.30;;;;;20.90;99022.00;;;;2079018;28;20271;-68
2023/12/10 04:00:13;;;;;;;10.03;2.40;;;;;20.90;99022.00;;;;2070149;28;20237;-69
2023/12/10 04:01:13;;;;;;;6.67;2.13;;;;;20.90;99019.00;;;;2080213;28;20220;-69
2023/12/10 04:02:14;;;;;;;7.93;2.80;;;;;20.90;99021.00;;;;2084826;28;20676;-69
2023/12/10 04:03:14;;;;;;;8.10;2.27;;;;;20.90;99020.00;;;;2080241;28;20240;-68
2023/12/10 04:04:15;;;;;;;4.80;1.77;;;;;20.90;99013.00;;;;2079863;28;20216;-69
2023/12/10 04:05:15;;;;;;;5.33;1.60;;;;;20.90;99030.00;;;;2070596;28;20213;-69
2023/12/10 04:06:15;;;;;;;5.73;2.30;;;;;20.90;99027.00;;;;2079883;28;20213;-69
2023/12/10 04:07:16;;;;;;;7.07;2.37;;;;;20.90;99016.00;;;;2079313;28;20206;-68
2023/12/10 04:08:16;;;;;;;6.13;2.00;;;;;20.90;99022.00;;;;2080277;28;20236;-68
2023/12/10 04:09:16;;;;;;;6.10;2.20;;;;;20.90;98993.00;;;;2079008;28;20383;-69
2023/12/10 04:10:17;;;;;;;4.43;1.60;;;;;20.90;99044.00;;;;2070258;28;20636;-70
2023/12/10 04:11:23;;;;;;;9.80;2.10;;;;;20.90;99042.00;;;;2079722;28;20647;-69
2023/12/10 04:12:23;;;;;;;6.07;2.38;;;;;20.90;99027.00;;;;2079901;28;20225;-69
2023/12/10 04:13:24;;;;;;;5.73;1.80;;;;;20.90;99032.00;;;;2079819;28;20232;-69
2023/12/10 04:14:24;;;;;;;4.37;1.63;;;;;20.90;99029.00;;;;2083845;28;20201;-69
2023/12/10 04:15:26;;;;;;;6.70;2.17;;;;;20.90;99023.00;;;;2070026;28;20244;-69
2023/12/10 04:16:29;;;;;;;8.00;2.38;;;;;20.90;99034.00;;;;2079397;28;20717;-69
2023/12/10 04:17:29;;;;;;;4.90;2.30;;;;;20.90;99039.00;;;;2080128;28;20237;-69
2023/12/10 04:18:29;;;;;;;6.80;2.00;;;;;20.90;99035.00;;;;2079355;28;20198;-69
2023/12/10 04:19:30;;;;;;;8.57;2.13;;;;;20.90;99034.00;;;;2080179;28;20216;-69
2023/12/10 04:20:30;;;;;;;7.00;2.20;;;;;20.90;99031.00;;;;2070621;28;20210;-69
2023/12/10 04:21:30;;;;;;;10.30;2.73;;;;;20.90;99052.00;;;;2083737;28;20212;-69
2023/12/10 04:22:31;;;;;;;7.07;1.70;;;;;20.90;99047.00;;;;2080335;28;20218;-69
2023/12/10 04:23:31;;;;;;;5.73;2.40;;;;;20.80;99033.00;;;;2076661;28;20225;-69
2023/12/10 04:24:31;;;;;;;6.70;2.27;;;;;20.80;99034.00;;;;2080103;28;20677;-69
2023/12/10 04:25:32;;;;;;;6.07;2.30;;;;;20.80;99036.00;;;;2068128;28;20252;-69
2023/12/10 04:26:32;;;;;;;7.00;2.03;;;;;20.80;99041.00;;;;2078480;28;20232;-69
2023/12/10 04:27:32;;;;;;;7.03;2.30;;;;;20.80;99051.00;;;;2079489;28;20245;-69
2023/12/10 04:28:33;;;;;;;5.83;1.90;;;;;20.80;99041.00;;;;2078490;28;20214;-69
2023/12/10 04:29:33;;;;;;;8.13;2.20;;;;;20.80;99028.00;;;;2079097;28;20245;-69
2023/12/10 04:30:33;;;;;;;9.60;2.90;;;;;20.80;99040.00;;;;2071728;28;20205;-69
2023/12/10 04:31:34;;;;;;;8.23;2.30;;;;;20.80;99038.00;;;;2080265;28;20266;-68
2023/12/10 04:32:34;;;;;;;7.20;2.40;;;;;20.80;98941.00;;;;2070241;28;20280;-68
2023/12/10 04:33:34;;;;;;;5.10;2.10;;;;;20.80;99049.00;;;;2071950;28;20214;-69
2023/12/10 04:34:35;;;;;;;6.27;2.50;;;;;20.80;99047.00;;;;2080080;28;20320;-69
2023/12/10 04:35:35;;;;;;;5.57;2.00;;;;;20.80;99050.00;;;;2069691;28;20217;-69
2023/12/10 04:36:36;;;;;;;6.97;2.63;;;;;20.80;99033.00;;;;2080191;28;20244;-68
2023/12/10 04:37:36;;;;;;;3.93;1.50;;;;;20.80;99039.00;;;;2079414;28;20248;-69
2023/12/10 04:38:36;;;;;;;6.47;2.10;;;;;20.80;99034.00;;;;2075655;28;20209;-69
2023/12/10 04:39:37;;;;;;;4.87;1.60;;;;;20.80;99052.00;;;;2070718;28;20220;-69
2023/12/10 04:40:38;;;;;;;6.30;1.97;;;;;20.80;99040.00;;;;2080081;28;20492;-69
2023/12/10 04:41:38;;;;;;;5.27;1.70;;;;;20.80;99041.00;;;;2079656;28;20494;-69
2023/12/10 04:42:39;;;;;;;6.43;2.10;;;;;20.80;99039.00;;;;2079903;28;20202;-69
2023/12/10 04:43:39;;;;;;;6.17;1.93;;;;;20.80;99037.00;;;;2079289;28;20229;-69
2023/12/10 04:44:39;;;;;;;6.80;2.53;;;;;20.80;99033.00;;;;2069005;28;20245;-69
2023/12/10 04:45:40;;;;;;;11.27;2.43;;;;;20.80;99037.00;;;;2079973;28;20235;-69
2023/12/10 04:46:41;;;;;;;6.72;1.90;;;;;20.70;99035.00;;;;2079581;28;20218;-69
2023/12/10 04:47:43;;;;;;;6.13;1.87;;;;;20.80;99047.00;;;;2083608;28;20681;-69
2023/12/10 04:48:44;;;;;;;7.00;2.05;;;;;20.80;99037.00;;;;2079360;28;20221;-69
2023/12/10 04:49:44;;;;;;;7.40;2.30;;;;;20.80;99038.00;;;;2070115;28;20221;-69
2023/12/10 04:50:44;;;;;;;6.83;2.40;;;;;20.80;99043.00;;;;2078169;28;20221;-69
2023/12/10 04:51:45;;;;;;;7.93;2.50;;;;;20.80;99035.00;;;;2076013;28;20307;-69
2023/12/10 04:52:45;;;;;;;8.03;2.37;;;;;20.80;99059.00;;;;2075691;28;20218;-68
2023/12/10 04:53:45;;;;;;;6.53;2.03;;;;;20.80;99044.00;;;;2079383;28;20230;-69
2023/12/10 04:54:45;;;;;;;5.10;2.27;;;;;20.80;99042.00;;;;2070515;28;20221;-69
2023/12/10 04:55:46;;;;;;;5.20;1.57;;;;;20.80;99051.00;;;;2077921;28;20213;-69
2023/12/10 04:56:46;;;;;;;5.87;1.93;;;;;20.80;99050.00;;;;2077631;28;20244;-69
2023/12/10 04:57:46;;;;;;;6.13;2.10;;;;;20.80;99051.00;;;;2079862;28;20227;-69
2023/12/10 04:58:47;;;;;;;5.80;1.67;;;;;20.80;99063.00;;;;2081941;28;20266;-69
2023/12/10 04:59:47;;;;;;;7.10;2.00;;;;;20.70;99049.00;;;;2075626;28;20221;-69
2023/12/10 05:00:47;;;;;;;6.17;2.17;;;;;20.70;99043.00;;;;2085926;28;20216;-69
2023/12/10 05:01:48;;;;;;;8.90;2.13;;;;;20.70;99044.00;;;;2083136;28;20244;-69